Observation data for Silverton on 11/19/2019      Previous  Date  Next       Current Mesonet Observations  Soil Data  Daily Summary Page  Observations in Plain Language
KSVS 190600Z 26005KT 04/M02 A2998 RMK A01 T00421024  RH  063%=      5-min Rain = 0
KSVS 190605Z 27005KT 04/M03 A2998 RMK A01 T00441025  RH  061%=      5-min Rain = 0
KSVS 190610Z 27005KT 05/M03 A2998 RMK A01 T00461029  RH  059%=      5-min Rain = 0
KSVS 190615Z 27006KT 05/M03 A2998 RMK A01 T00451030  RH  059%=      5-min Rain = 0
KSVS 190620Z 27007KT 04/M03 A2998 RMK A01 T00441027  RH  060%=      5-min Rain = 0
KSVS 190625Z 27007KT 04/M03 A2998 RMK A01 T00431027  RH  061%=      5-min Rain = 0
KSVS 190630Z 26008KT 04/M03 A2998 RMK A01 T00431028  RH  060%=      5-min Rain = 0
KSVS 190635Z 26009KT 04/M03 A2999 RMK A01 T00391029  RH  062%=      5-min Rain = 0
KSVS 190640Z 26007KT 04/M03 A2999 RMK A01 T00381030  RH  061%=      5-min Rain = 0
KSVS 190645Z 26007KT 04/M03 A2999 RMK A01 T00381030  RH  061%=      5-min Rain = 0
KSVS 190650Z 27007KT 04/M03 A2999 RMK A01 T00361029  RH  063%=      5-min Rain = 0
KSVS 190655Z 28006KT 03/M03 A2999 RMK A01 T00331026  RH  066%=      5-min Rain = 0
KSVS 190700Z 29007KT 04/M02 A2999 RMK A01 T00371023  RH  065%=      5-min Rain = 0
KSVS 190705Z 28008KT 04/M02 A2999 RMK A01 T00361023  RH  066%=      5-min Rain = 0
KSVS 190710Z 29007KT 04/M02 A2999 RMK A01 T00381021  RH  066%=      5-min Rain = 0
KSVS 190715Z 30006KT 04/M02 A2998 RMK A01 T00421018  RH  066%=      5-min Rain = 0
KSVS 190720Z 31005KT 05/M02 A2998 RMK A01 T00491017  RH  063%=      5-min Rain = 0
KSVS 190725Z 32003KT 05/M02 A2997 RMK A01 T00501017  RH  062%=      5-min Rain = 0
KSVS 190730Z 30003KT 05/M02 A2998 RMK A01 T00531017  RH  061%=      5-min Rain = 0
KSVS 190735Z 30002KT 05/M02 A2997 RMK A01 T00531018  RH  061%=      5-min Rain = 0
KSVS 190740Z 29000KT 05/M02 A2997 RMK A01 T00521018  RH  061%=      5-min Rain = 0
KSVS 190745Z 29001KT 05/M02 A2997 RMK A01 T00491020  RH  061%=      5-min Rain = 0
KSVS 190750Z 24003KT 05/M02 A2997 RMK A01 T00481019  RH  063%=      5-min Rain = 0
KSVS 190755Z 24003KT 04/M02 A2997 RMK A01 T00421018  RH  065%=      5-min Rain = 0
KSVS 190800Z 25004KT 04/M02 A2997 RMK A01 T00431018  RH  065%=      5-min Rain = 0
KSVS 190805Z 26004KT 04/M02 A2997 RMK A01 T00431022  RH  063%=      5-min Rain = 0
KSVS 190810Z 28005KT 04/M03 A2997 RMK A01 T00381026  RH  064%=      5-min Rain = 0
KSVS 190815Z 28006KT 04/M03 A2998 RMK A01 T00371025  RH  064%=      5-min Rain = 0
KSVS 190820Z 29007KT 03/M02 A2998 RMK A01 T00321024  RH  067%=      5-min Rain = 0
KSVS 190825Z 28006KT 03/M02 A2998 RMK A01 T00321022  RH  068%=      5-min Rain = 0
KSVS 190830Z 28007KT 03/M02 A2998 RMK A01 T00331022  RH  067%=      5-min Rain = 0
KSVS 190835Z 28007KT 03/M02 A2998 RMK A01 T00311022  RH  068%=      5-min Rain = 0
KSVS 190840Z 28008KT 03/M02 A2998 RMK A01 T00301022  RH  069%=      5-min Rain = 0
KSVS 190845Z 28009KT 03/M02 A2998 RMK A01 T00301018  RH  071%=      5-min Rain = 0
KSVS 190850Z 28008KT 03/M02 A2998 RMK A01 T00321016  RH  071%=      5-min Rain = 0
KSVS 190855Z 29007KT 03/M02 A2998 RMK A01 T00321017  RH  071%=      5-min Rain = 0
KSVS 190900Z 29007KT 03/M02 A2998 RMK A01 T00341018  RH  070%=      5-min Rain = 0
KSVS 190905Z 29007KT 03/M02 A2998 RMK A01 T00331019  RH  069%=      5-min Rain = 0
KSVS 190910Z 29007KT 03/M02 A2998 RMK A01 T00311020  RH  070%=      5-min Rain = 0
KSVS 190915Z 29008KT 03/M02 A2998 RMK A01 T00311019  RH  070%=      5-min Rain = 0
KSVS 190920Z 30009KT 03/M02 A2998 RMK A01 T00281019  RH  072%=      5-min Rain = 0
KSVS 190925Z 30008KT 03/M02 A2999 RMK A01 T00301016  RH  072%=      5-min Rain = 0
KSVS 190930Z 29008KT 03/M02 A2999 RMK A01 T00311016  RH  072%=      5-min Rain = 0
KSVS 190935Z 29008KT 03/M02 A2999 RMK A01 T00291017  RH  072%=      5-min Rain = 0
KSVS 190940Z 29007KT 03/M02 A2999 RMK A01 T00271017  RH  074%=      5-min Rain = 0
KSVS 190945Z 29007KT 03/M02 A2999 RMK A01 T00281016  RH  073%=      5-min Rain = 0
KSVS 190950Z 29007KT 03/M02 A2999 RMK A01 T00301016  RH  072%=      5-min Rain = 0
KSVS 190955Z 29008KT 03/M02 A2999 RMK A01 T00301017  RH  072%=      5-min Rain = 0
KSVS 191000Z 29008KT 03/M02 A2998 RMK A01 T00311016  RH  071%=      5-min Rain = 0
KSVS 191005Z 29008KT 03/M02 A2998 RMK A01 T00341016  RH  070%=      5-min Rain = 0
KSVS 191010Z 28007KT 03/M02 A2998 RMK A01 T00301017  RH  072%=      5-min Rain = 0
KSVS 191015Z 28007KT 03/M02 A2998 RMK A01 T00291019  RH  072%=      5-min Rain = 0
KSVS 191020Z 28006KT 03/M02 A2998 RMK A01 T00321019  RH  070%=      5-min Rain = 0
KSVS 191025Z 27006KT 03/M02 A2998 RMK A01 T00321023  RH  068%=      5-min Rain = 0
KSVS 191030Z 26006KT 03/M02 A2998 RMK A01 T00311023  RH  068%=      5-min Rain = 0
KSVS 191035Z 26006KT 03/M02 A2998 RMK A01 T00301024  RH  068%=      5-min Rain = 0
KSVS 191040Z 27005KT 03/M02 A2998 RMK A01 T00261024  RH  070%=      5-min Rain = 0
KSVS 191045Z 28006KT 03/M02 A2998 RMK A01 T00261024  RH  070%=      5-min Rain = 0
KSVS 191050Z 28006KT 03/M03 A2998 RMK A01 T00281026  RH  068%=      5-min Rain = 0
KSVS 191055Z 28006KT 03/M03 A2997 RMK A01 T00281028  RH  067%=      5-min Rain = 0
KSVS 191100Z 28004KT 03/M03 A2997 RMK A01 T00271028  RH  067%=      5-min Rain = 0
KSVS 191105Z 27004KT 03/M03 A2997 RMK A01 T00321026  RH  066%=      5-min Rain = 0
KSVS 191110Z 27003KT 03/M03 A2997 RMK A01 T00341026  RH  065%=      5-min Rain = 0
KSVS 191115Z 26003KT 04/M03 A2997 RMK A01 T00361027  RH  064%=      5-min Rain = 0
KSVS 191120Z 25002KT 04/M03 A2997 RMK A01 T00371027  RH  063%=      5-min Rain = 0
KSVS 191125Z 23002KT 04/M03 A2996 RMK A01 T00441026  RH  061%=      5-min Rain = 0
KSVS 191130Z 19001KT 05/M03 A2996 RMK A01 T00501026  RH  058%=      5-min Rain = 0
KSVS 191135Z 23001KT 03/M03 A2996 RMK A01 T00341031  RH  063%=      5-min Rain = 0
KSVS 191140Z 26006KT 02/M03 A2996 RMK A01 T00241029  RH  069%=      5-min Rain = 0
KSVS 191145Z 26005KT 03/M03 A2996 RMK A01 T00251025  RH  070%=      5-min Rain = 0
KSVS 191150Z 27003KT 03/M03 A2995 RMK A01 T00261027  RH  069%=      5-min Rain = 0
KSVS 191155Z 28003KT 03/M03 A2995 RMK A01 T00261027  RH  068%=      5-min Rain = 0
KSVS 191200Z 28003KT 03/M03 A2995 RMK A01 T00301028  RH  066%=      5-min Rain = 0
KSVS 191205Z 27002KT 03/M03 A2995 RMK A01 T00301028  RH  066%=      5-min Rain = 0
KSVS 191210Z 27002KT 03/M03 A2995 RMK A01 T00281027  RH  068%=      5-min Rain = 0
KSVS 191215Z 27002KT 03/M03 A2994 RMK A01 T00281028  RH  067%=      5-min Rain = 0
KSVS 191220Z 27001KT 03/M03 A2994 RMK A01 T00291029  RH  066%=      5-min Rain = 0
KSVS 191225Z 27002KT 03/M03 A2994 RMK A01 T00301028  RH  066%=      5-min Rain = 0
KSVS 191230Z 26004KT 03/M03 A2995 RMK A01 T00281029  RH  066%=      5-min Rain = 0
KSVS 191235Z 26005KT 02/M03 A2995 RMK A01 T00201030  RH  070%=      5-min Rain = 0
KSVS 191240Z 27006KT 02/M03 A2995 RMK A01 T00161028  RH  073%=      5-min Rain = 0
KSVS 191245Z 27006KT 02/M03 A2995 RMK A01 T00181025  RH  073%=      5-min Rain = 0
KSVS 191250Z 26006KT 02/M03 A2995 RMK A01 T00201027  RH  071%=      5-min Rain = 0
KSVS 191255Z 26007KT 02/M03 A2995 RMK A01 T00171030  RH  071%=      5-min Rain = 0
KSVS 191300Z 26008KT 01/M03 A2996 RMK A01 T00131029  RH  074%=      5-min Rain = 0
KSVS 191305Z 26006KT 02/M03 A2996 RMK A01 T00151028  RH  074%=      5-min Rain = 0
KSVS 191310Z 25007KT 02/M03 A2996 RMK A01 T00171029  RH  072%=      5-min Rain = 0
KSVS 191315Z 25006KT 02/M03 A2996 RMK A01 T00161031  RH  071%=      5-min Rain = 0
KSVS 191320Z 25006KT 02/M03 A2996 RMK A01 T00161031  RH  072%=      5-min Rain = 0
KSVS 191325Z 25006KT 02/M03 A2996 RMK A01 T00201030  RH  070%=      5-min Rain = 0
KSVS 191330Z 24005KT 02/M03 A2996 RMK A01 T00241029  RH  069%=      5-min Rain = 0
KSVS 191335Z 24005KT 03/M03 A2996 RMK A01 T00271028  RH  067%=      5-min Rain = 0
KSVS 191340Z 24005KT 03/M03 A2996 RMK A01 T00291027  RH  067%=      5-min Rain = 0
KSVS 191345Z 24004KT 03/M03 A2996 RMK A01 T00281025  RH  069%=      5-min Rain = 0
KSVS 191350Z 25005KT 03/M02 A2996 RMK A01 T00281023  RH  070%=      5-min Rain = 0
KSVS 191355Z 25006KT 03/M01 A2996 RMK A01 T00311013  RH  074%=      5-min Rain = 0
KSVS 191400Z 26007KT 04/M01 A2996 RMK A01 T00381009  RH  072%=      5-min Rain = 0
KSVS 191405Z 25006KT 05/M01 A2996 RMK A01 T00461005  RH  071%=      5-min Rain = 0
KSVS 191410Z 25006KT 06/M00 A2996 RMK A01 T00551002  RH  067%=      5-min Rain = 0
KSVS 191415Z 25006KT 06/M00 A2996 RMK A01 T00601001  RH  066%=      5-min Rain = 0
KSVS 191420Z 25005KT 06/00 A2996 RMK A01 T006400-0  RH  064%=      5-min Rain = 0
KSVS 191425Z 24007KT 07/00 A2996 RMK A01 T00700003  RH  063%=      5-min Rain = 0
KSVS 191430Z 24007KT 08/01 A2996 RMK A01 T00770006  RH  061%=      5-min Rain = 0
KSVS 191435Z 24007KT 09/01 A2996 RMK A01 T00850010  RH  060%=      5-min Rain = 0
KSVS 191440Z 23007KT 09/01 A2996 RMK A01 T00940012  RH  057%=      5-min Rain = 0
KSVS 191445Z 23007KT 10/01 A2996 RMK A01 T01030014  RH  055%=      5-min Rain = 0
KSVS 191450Z 23007KT 11/02 A2996 RMK A01 T01130017  RH  052%=      5-min Rain = 0
KSVS 191455Z 23006KT 12/02 A2996 RMK A01 T01240016  RH  048%=      5-min Rain = 0
KSVS 191500Z 22005KT 13/02 A2996 RMK A01 T01340016  RH  045%=      5-min Rain = 0
KSVS 191505Z 21004KT 14/02 A2996 RMK A01 T01430015  RH  042%=      5-min Rain = 0
KSVS 191510Z 21005KT 15/01 A2996 RMK A01 T01510014  RH  040%=      5-min Rain = 0
KSVS 191515Z 22005KT 16/02 A2996 RMK A01 T01550015  RH  039%=      5-min Rain = 0
KSVS 191520Z 21005KT 16/01 A2996 RMK A01 T01610013  RH  037%=      5-min Rain = 0
KSVS 191525Z 20004KT 17/01 A2996 RMK A01 T01650013  RH  036%=      5-min Rain = 0
KSVS 191530Z 19005KT 17/01 A2996 RMK A01 T01710013  RH  035%=      5-min Rain = 0
KSVS 191535Z 18006KT 18/01 A2996 RMK A01 T01790012  RH  033%=      5-min Rain = 0
KSVS 191540Z 17009KT 18/01 A2996 RMK A01 T01820009  RH  031%=      5-min Rain = 0
KSVS 191545Z 16008KT 18/01 A2996 RMK A01 T01820010  RH  032%=      5-min Rain = 0
KSVS 191550Z 16009KT 19/01 A2996 RMK A01 T01870008  RH  030%=      5-min Rain = 0
KSVS 191555Z 17010KT 19/01 A2996 RMK A01 T01940007  RH  029%=      5-min Rain = 0
KSVS 191600Z 17010KT 20/01 A2996 RMK A01 T01970007  RH  028%=      5-min Rain = 0
KSVS 191605Z 17011KT 20/01 A2996 RMK A01 T02000006  RH  028%=      5-min Rain = 0
KSVS 191610Z 16011KT 21/01 A2996 RMK A01 T02060006  RH  027%=      5-min Rain = 0
KSVS 191615Z 16011KT 20/01 A2996 RMK A01 T02030005  RH  027%=      5-min Rain = 0
KSVS 191620Z 16011KT 20/00 A2996 RMK A01 T02030004  RH  027%=      5-min Rain = 0
KSVS 191625Z 16011KT 21/01 A2995 RMK A01 T02080005  RH  026%=      5-min Rain = 0
KSVS 191630Z 16012G17KT 21/00 A2995 RMK A01 T02080003  RH  026%=      5-min Rain = 0
KSVS 191635Z 15012KT 21/00 A2995 RMK A01 T02110004  RH  026%=      5-min Rain = 0
KSVS 191640Z 15012G17KT 21/00 A2995 RMK A01 T02100004  RH  026%=      5-min Rain = 0
KSVS 191645Z 15012KT 21/00 A2994 RMK A01 T02110003  RH  025%=      5-min Rain = 0
KSVS 191650Z 15013G18KT 21/00 A2994 RMK A01 T02140004  RH  025%=      5-min Rain = 0
KSVS 191655Z 15014KT 21/00 A2994 RMK A01 T02140004  RH  025%=      5-min Rain = 0
KSVS 191700Z 15014KT 22/00 A2993 RMK A01 T02150003  RH  025%=      5-min Rain = 0
KSVS 191705Z 15015G20KT 22/00 A2993 RMK A01 T02160001  RH  024%=      5-min Rain = 0
KSVS 191710Z 15015G21KT 22/00 A2993 RMK A01 T02180001  RH  024%=      5-min Rain = 0
KSVS 191715Z 16015G20KT 22/00 A2993 RMK A01 T02190001  RH  024%=      5-min Rain = 0
KSVS 191720Z 16015G20KT 21/00 A2993 RMK A01 T02110001  RH  025%=      5-min Rain = 0
KSVS 191725Z 15013G18KT 22/01 A2993 RMK A01 T02180007  RH  025%=      5-min Rain = 0
KSVS 191730Z 15014KT 21/01 A2993 RMK A01 T02070006  RH  027%=      5-min Rain = 0
KSVS 191735Z 15012G17KT 21/01 A2993 RMK A01 T02070008  RH  027%=      5-min Rain = 0
KSVS 191740Z 16011G16KT 21/01 A2993 RMK A01 T02130009  RH  026%=      5-min Rain = 0
KSVS 191745Z 16013KT 22/01 A2992 RMK A01 T02180007  RH  025%=      5-min Rain = 0
KSVS 191750Z 16014KT 22/01 A2992 RMK A01 T02220006  RH  024%=      5-min Rain = 0
KSVS 191755Z 16013G18KT 23/01 A2992 RMK A01 T02250008  RH  024%=      5-min Rain = 0
KSVS 191800Z 16013G19KT 23/01 A2992 RMK A01 T02250008  RH  024%=      5-min Rain = 0
KSVS 191805Z 15013KT 22/01 A2991 RMK A01 T02240010  RH  025%=      5-min Rain = 0
KSVS 191810Z 15013KT 22/01 A2991 RMK A01 T02240012  RH  025%=      5-min Rain = 0
KSVS 191815Z 14013KT 23/01 A2991 RMK A01 T02280014  RH  025%=      5-min Rain = 0
KSVS 191820Z 15013KT 23/01 A299 RMK A01 T02280013  RH  025%=      5-min Rain = 0
KSVS 191825Z 15014G20KT 23/01 A299 RMK A01 T02300010  RH  024%=      5-min Rain = 0
KSVS 191830Z 15014KT 23/01 A2989 RMK A01 T02330007  RH  023%=      5-min Rain = 0
KSVS 191835Z 15015KT 24/01 A2989 RMK A01 T02360007  RH  022%=      5-min Rain = 0
KSVS 191840Z 16015G20KT 24/M00 A2989 RMK A01 T02391002  RH  021%=      5-min Rain = 0
KSVS 191845Z 17015G20KT 24/M01 A2988 RMK A01 T02441009  RH  019%=      5-min Rain = 0
KSVS 191850Z 17015G20KT 24/M02 A2988 RMK A01 T02411018  RH  018%=      5-min Rain = 0
KSVS 191855Z 17015G20KT 24/M02 A2988 RMK A01 T02411015  RH  018%=      5-min Rain = 0
KSVS 191900Z 18014G19KT 24/M01 A2987 RMK A01 T02421012  RH  019%=      5-min Rain = 0
KSVS 191905Z 18015G20KT 24/M01 A2987 RMK A01 T02441014  RH  018%=      5-min Rain = 0
KSVS 191910Z 18015G24KT 25/M01 A2987 RMK A01 T02451014  RH  018%=      5-min Rain = 0
KSVS 191915Z 18015G21KT 24/M02 A2986 RMK A01 T02431015  RH  018%=      5-min Rain = 0
KSVS 191920Z 20014G20KT 24/M02 A2986 RMK A01 T02401017  RH  018%=      5-min Rain = 0
KSVS 191925Z 20013G18KT 24/M02 A2986 RMK A01 T02351015  RH  019%=      5-min Rain = 0
KSVS 191930Z 19016G23KT 24/M02 A2986 RMK A01 T02411016  RH  018%=      5-min Rain = 0
KSVS 191935Z 18014G20KT 24/M02 A2985 RMK A01 T02441015  RH  018%=      5-min Rain = 0
KSVS 191940Z 19014G21KT 24/M02 A2985 RMK A01 T02431016  RH  018%=      5-min Rain = 0
KSVS 191945Z 20016G23KT 23/M02 A2985 RMK A01 T02331019  RH  019%=      5-min Rain = 0
KSVS 191950Z 19018G23KT 24/M02 A2985 RMK A01 T02431017  RH  018%=      5-min Rain = 0
KSVS 191955Z 19015G20KT 25/M02 A2984 RMK A01 T02471015  RH  018%=      5-min Rain = 0
KSVS 192000Z 19015G21KT 25/M02 A2984 RMK A01 T02471015  RH  018%=      5-min Rain = 0
KSVS 192005Z 20018G23KT 25/M02 A2984 RMK A01 T02461016  RH  018%=      5-min Rain = 0
KSVS 192010Z 19018G24KT 24/M01 A2984 RMK A01 T02441014  RH  018%=      5-min Rain = 0
KSVS 192015Z 20018G24KT 24/M01 A2984 RMK A01 T02441013  RH  018%=      5-min Rain = 0
KSVS 192020Z 20018G23KT 25/M01 A2984 RMK A01 T02461011  RH  018%=      5-min Rain = 0
KSVS 192025Z 19019G26KT 25/M01 A2983 RMK A01 T02451008  RH  019%=      5-min Rain = 0
KSVS 192030Z 20017G22KT 25/M01 A2983 RMK A01 T02481007  RH  019%=      5-min Rain = 0
KSVS 192035Z 20018G24KT 25/M01 A2983 RMK A01 T02481010  RH  018%=      5-min Rain = 0
KSVS 192040Z 20016G23KT 25/M01 A2983 RMK A01 T02491010  RH  018%=      5-min Rain = 0
KSVS 192045Z 19017G22KT 25/M01 A2983 RMK A01 T02461010  RH  019%=      5-min Rain = 0
KSVS 192050Z 20016G23KT 25/M01 A2983 RMK A01 T02461007  RH  019%=      5-min Rain = 0
KSVS 192055Z 19018G24KT 24/M01 A2983 RMK A01 T02441010  RH  019%=      5-min Rain = 0
KSVS 192100Z 19016G22KT 25/M01 A2983 RMK A01 T02451010  RH  019%=      5-min Rain = 0
KSVS 192105Z 19017G25KT 25/M01 A2983 RMK A01 T02481011  RH  018%=      5-min Rain = 0
KSVS 192110Z 20018G26KT 25/M01 A2983 RMK A01 T02451009  RH  019%=      5-min Rain = 0
KSVS 192115Z 20018G23KT 24/M01 A2983 RMK A01 T02431008  RH  019%=      5-min Rain = 0
KSVS 192120Z 19017G23KT 24/M01 A2982 RMK A01 T02431009  RH  019%=      5-min Rain = 0
KSVS 192125Z 19017G23KT 24/M01 A2982 RMK A01 T02421008  RH  019%=      5-min Rain = 0
KSVS 192130Z 19019G25KT 24/M01 A2982 RMK A01 T02421012  RH  019%=      5-min Rain = 0
KSVS 192135Z 19017G22KT 24/M01 A2982 RMK A01 T02421013  RH  019%=      5-min Rain = 0
KSVS 192140Z 19016G22KT 24/M01 A2982 RMK A01 T02431010  RH  019%=      5-min Rain = 0
KSVS 192145Z 19017G23KT 24/M01 A2982 RMK A01 T02381012  RH  019%=      5-min Rain = 0
KSVS 192150Z 19014G19KT 24/M01 A2982 RMK A01 T02411011  RH  019%=      5-min Rain = 0
KSVS 192155Z 19015G20KT 24/M01 A2981 RMK A01 T02371009  RH  020%=      5-min Rain = 0
KSVS 192200Z 19015G21KT 24/M01 A2981 RMK A01 T02371010  RH  020%=      5-min Rain = 0
KSVS 192205Z 19015G21KT 24/M01 A2981 RMK A01 T02371012  RH  019%=      5-min Rain = 0
KSVS 192210Z 19017G22KT 24/M01 A2981 RMK A01 T02371012  RH  019%=      5-min Rain = 0
KSVS 192215Z 19016G23KT 24/M01 A2981 RMK A01 T02371011  RH  019%=      5-min Rain = 0
KSVS 192220Z 19015G21KT 24/M01 A2981 RMK A01 T02371010  RH  020%=      5-min Rain = 0
KSVS 192225Z 19017G22KT 24/M01 A2981 RMK A01 T02351013  RH  019%=      5-min Rain = 0
KSVS 192230Z 19015G21KT 23/M01 A2981 RMK A01 T02341012  RH  020%=      5-min Rain = 0
KSVS 192235Z 19014G19KT 23/M01 A2981 RMK A01 T02341009  RH  020%=      5-min Rain = 0
KSVS 192240Z 18014KT 23/M01 A2981 RMK A01 T02311006  RH  021%=      5-min Rain = 0
KSVS 192245Z 18016G23KT 23/M01 A2981 RMK A01 T02291007  RH  021%=      5-min Rain = 0
KSVS 192250Z 18014G19KT 23/M01 A2981 RMK A01 T02271007  RH  021%=      5-min Rain = 0
KSVS 192255Z 18015G20KT 23/M01 A2981 RMK A01 T02251007  RH  022%=      5-min Rain = 0
KSVS 192300Z 18015G20KT 22/M01 A2981 RMK A01 T02231007  RH  022%=      5-min Rain = 0
KSVS 192305Z 18013G18KT 22/M01 A2981 RMK A01 T02191007  RH  022%=      5-min Rain = 0
KSVS 192310Z 18013G18KT 22/M01 A2981 RMK A01 T02171008  RH  022%=      5-min Rain = 0
KSVS 192315Z 17012KT 21/M01 A2981 RMK A01 T02101007  RH  024%=      5-min Rain = 0
KSVS 192320Z 17011KT 20/M01 A2981 RMK A01 T02031006  RH  025%=      5-min Rain = 0
KSVS 192325Z 17011KT 20/M01 A298 RMK A01 T01981005  RH  026%=      5-min Rain = 0
KSVS 192330Z 17010KT 19/M00 A2981 RMK A01 T01941004  RH  027%=      5-min Rain = 0
KSVS 192335Z 17011KT 19/M00 A2981 RMK A01 T01911003  RH  027%=      5-min Rain = 0
KSVS 192340Z 17011KT 19/M00 A2981 RMK A01 T01901002  RH  028%=      5-min Rain = 0
KSVS 192345Z 17011KT 19/M00 A2981 RMK A01 T01861001  RH  029%=      5-min Rain = 0
KSVS 192350Z 17010KT 18/M00 A2981 RMK A01 T01821001  RH  029%=      5-min Rain = 0
KSVS 192355Z 17009KT 18/M00 A2981 RMK A01 T01761001  RH  031%=      5-min Rain = 0
KSVS 200000Z 17009KT 17/M00 A2981 RMK A01 T01701001  RH  032%=      5-min Rain = 0
KSVS 200005Z 17010KT 16/M00 A2982 RMK A01 T01641001  RH  033%=      5-min Rain = 0
KSVS 200010Z 17010KT 16/00 A2982 RMK A01 T01640001  RH  033%=      5-min Rain = 0
KSVS 200015Z 17010KT 17/00 A2981 RMK A01 T01660003  RH  033%=      5-min Rain = 0
KSVS 200020Z 17010KT 17/00 A2981 RMK A01 T01660004  RH  034%=      5-min Rain = 0
KSVS 200025Z 17010KT 16/01 A2981 RMK A01 T01640005  RH  034%=      5-min Rain = 0
KSVS 200030Z 17009KT 16/01 A2981 RMK A01 T01640006  RH  035%=      5-min Rain = 0
KSVS 200035Z 17009KT 16/01 A2982 RMK A01 T01580006  RH  036%=      5-min Rain = 0
KSVS 200040Z 17010KT 16/01 A2982 RMK A01 T01560007  RH  037%=      5-min Rain = 0
KSVS 200045Z 17010KT 16/01 A2982 RMK A01 T01570008  RH  037%=      5-min Rain = 0
KSVS 200050Z 17009KT 16/01 A2982 RMK A01 T01550008  RH  037%=      5-min Rain = 0
KSVS 200055Z 17009KT 15/01 A2982 RMK A01 T01540008  RH  038%=      5-min Rain = 0
KSVS 200100Z 17008KT 15/01 A2982 RMK A01 T01510008  RH  038%=      5-min Rain = 0
KSVS 200105Z 17009KT 15/01 A2981 RMK A01 T01480008  RH  039%=      5-min Rain = 0
KSVS 200110Z 17009KT 15/01 A2981 RMK A01 T01460009  RH  040%=      5-min Rain = 0
KSVS 200115Z 17009KT 15/01 A2981 RMK A01 T01450009  RH  040%=      5-min Rain = 0
KSVS 200120Z 17009KT 15/01 A2981 RMK A01 T01490010  RH  039%=      5-min Rain = 0
KSVS 200125Z 17009KT 15/01 A2981 RMK A01 T01510011  RH  039%=      5-min Rain = 0
KSVS 200130Z 17009KT 15/01 A2981 RMK A01 T01530011  RH  039%=      5-min Rain = 0
KSVS 200135Z 17009KT 16/01 A2982 RMK A01 T01560011  RH  038%=      5-min Rain = 0
KSVS 200140Z 17010KT 16/01 A2981 RMK A01 T01580011  RH  037%=      5-min Rain = 0
KSVS 200145Z 17010KT 16/01 A2981 RMK A01 T01600012  RH  037%=      5-min Rain = 0
KSVS 200150Z 17010KT 16/01 A2981 RMK A01 T01630012  RH  036%=      5-min Rain = 0
KSVS 200155Z 17010KT 16/01 A2981 RMK A01 T01620011  RH  037%=      5-min Rain = 0
KSVS 200200Z 17010KT 16/01 A2981 RMK A01 T01610011  RH  037%=      5-min Rain = 0
KSVS 200205Z 17010KT 16/01 A2981 RMK A01 T01590011  RH  037%=      5-min Rain = 0
KSVS 200210Z 17009KT 16/01 A2981 RMK A01 T01570011  RH  038%=      5-min Rain = 0
KSVS 200215Z 17009KT 15/01 A2981 RMK A01 T01540011  RH  039%=      5-min Rain = 0
KSVS 200220Z 17010KT 15/01 A2981 RMK A01 T01530012  RH  039%=      5-min Rain = 0
KSVS 200225Z 17010KT 15/01 A2981 RMK A01 T01510012  RH  039%=      5-min Rain = 0
KSVS 200230Z 17010KT 15/01 A2982 RMK A01 T01500012  RH  040%=      5-min Rain = 0
KSVS 200235Z 17009KT 15/01 A2982 RMK A01 T01490013  RH  040%=      5-min Rain = 0
KSVS 200240Z 17009KT 15/01 A2982 RMK A01 T01450012  RH  041%=      5-min Rain = 0
KSVS 200245Z 18009KT 14/01 A2982 RMK A01 T01420012  RH  042%=      5-min Rain = 0
KSVS 200250Z 18008KT 14/01 A2981 RMK A01 T01390011  RH  042%=      5-min Rain = 0
KSVS 200255Z 18009KT 14/01 A2981 RMK A01 T01370012  RH  043%=      5-min Rain = 0
KSVS 200300Z 18009KT 14/01 A2981 RMK A01 T01410013  RH  042%=      5-min Rain = 0
KSVS 200305Z 18009KT 14/01 A2981 RMK A01 T01430013  RH  042%=      5-min Rain = 0
KSVS 200310Z 18010KT 15/01 A2981 RMK A01 T01470013  RH  041%=      5-min Rain = 0
KSVS 200315Z 18009KT 15/01 A2981 RMK A01 T01480013  RH  040%=      5-min Rain = 0
KSVS 200320Z 18009KT 15/01 A2981 RMK A01 T01470014  RH  041%=      5-min Rain = 0
KSVS 200325Z 18009KT 15/01 A2981 RMK A01 T01450014  RH  042%=      5-min Rain = 0
KSVS 200330Z 18008KT 14/01 A2981 RMK A01 T01400014  RH  043%=      5-min Rain = 0
KSVS 200335Z 18008KT 14/01 A2981 RMK A01 T01370014  RH  044%=      5-min Rain = 0
KSVS 200340Z 18008KT 14/02 A2981 RMK A01 T01370015  RH  044%=      5-min Rain = 0
KSVS 200345Z 19008KT 14/02 A2981 RMK A01 T01370016  RH  044%=      5-min Rain = 0
KSVS 200350Z 19009KT 14/02 A2981 RMK A01 T01390017  RH  044%=      5-min Rain = 0
KSVS 200355Z 18009KT 14/02 A2981 RMK A01 T01420018  RH  044%=      5-min Rain = 0
KSVS 200400Z 19009KT 14/02 A2981 RMK A01 T01440018  RH  043%=      5-min Rain = 0
KSVS 200405Z 19009KT 15/02 A2981 RMK A01 T01490019  RH  042%=      5-min Rain = 0
KSVS 200410Z 19010KT 15/02 A2981 RMK A01 T01510020  RH  042%=      5-min Rain = 0
KSVS 200415Z 19011KT 16/02 A2981 RMK A01 T01550020  RH  041%=      5-min Rain = 0
KSVS 200420Z 19011G16KT 16/02 A2981 RMK A01 T01560020  RH  041%=      5-min Rain = 0
KSVS 200425Z 19011KT 16/02 A298 RMK A01 T01560020  RH  041%=      5-min Rain = 0
KSVS 200430Z 19012KT 16/02 A298 RMK A01 T01550020  RH  041%=      5-min Rain = 0
KSVS 200435Z 20011KT 15/02 A298 RMK A01 T01500020  RH  042%=      5-min Rain = 0
KSVS 200440Z 20011KT 15/02 A298 RMK A01 T01460021  RH  043%=      5-min Rain = 0
KSVS 200445Z 20011KT 14/02 A298 RMK A01 T01440022  RH  044%=      5-min Rain = 0
KSVS 200450Z 20012KT 15/02 A298 RMK A01 T01460023  RH  044%=      5-min Rain = 0
KSVS 200455Z 20011KT 14/02 A298 RMK A01 T01440023  RH  045%=      5-min Rain = 0
KSVS 200500Z 21010KT 14/02 A298 RMK A01 T01410024  RH  046%=      5-min Rain = 0
KSVS 200505Z 21011G17KT 14/03 A298 RMK A01 T01410026  RH  047%=      5-min Rain = 0
KSVS 200510Z 21013KT 14/03 A298 RMK A01 T01440029  RH  047%=      5-min Rain = 0
KSVS 200515Z 21013G18KT 15/03 A298 RMK A01 T01480031  RH  046%=      5-min Rain = 0
KSVS 200520Z 21013KT 15/03 A298 RMK A01 T01470032  RH  047%=      5-min Rain = 0
KSVS 200525Z 21013KT 15/04 A298 RMK A01 T01490035  RH  047%=      5-min Rain = 0
KSVS 200530Z 21015KT 15/04 A2981 RMK A01 T01530038  RH  047%=      5-min Rain = 0
KSVS 200535Z 21016G21KT 16/04 A2981 RMK A01 T01570040  RH  047%=      5-min Rain = 0
KSVS 200540Z 21016KT 16/04 A298 RMK A01 T01580041  RH  047%=      5-min Rain = 0
KSVS 200545Z 21015G20KT 16/04 A298 RMK A01 T01570041  RH  047%=      5-min Rain = 0
KSVS 200550Z 21015G20KT 16/04 A298 RMK A01 T01560042  RH  048%=      5-min Rain = 0
KSVS 200555Z 21014KT 15/04 A2981 RMK A01 T01540042  RH  048%=      5-min Rain = 0

Page generated in 0.0104 seconds.